Time;durP1;ratioP1;P1;durP2;ratioP2;P2;SDS_P1;SDS_P2;PMS_P1;PMS_P2;Temp;Humidity;BMP_temperature;BMP_pressure;BME280_temperature;BME280_humidity;BME280_pressure;Samples;Min_cycle;Max_cycle;Signal;HPM_P1;HPM_P2
2022/06/06 00:01:51;;;;;;;19.75;13.57;;;15.90;99.90;;;;;;4860164;29;20088;-84
2022/06/06 00:04:19;;;;;;;19.30;13.90;;;15.90;99.90;;;;;;4881821;29;20036;-85
2022/06/06 00:06:46;;;;;;;17.35;13.45;;;15.90;99.90;;;;;;4867436;29;20503;-82
2022/06/06 00:09:14;;;;;;;19.40;14.80;;;15.80;99.90;;;;;;4862887;29;20668;-83
2022/06/06 00:11:40;;;;;;;16.23;12.88;;;15.80;99.90;;;;;;4875239;29;20072;-86
2022/06/06 00:14:06;;;;;;;15.85;13.10;;;15.80;99.90;;;;;;4866578;29;20056;-84
2022/06/06 00:16:32;;;;;;;15.63;12.73;;;15.80;99.90;;;;;;4865952;29;20501;-85
2022/06/06 00:18:58;;;;;;;15.32;11.80;;;15.70;99.90;;;;;;4865962;29;20043;-82
2022/06/06 00:21:24;;;;;;;14.98;10.77;;;15.80;99.90;;;;;;4881431;29;20443;-86
2022/06/06 00:23:50;;;;;;;13.88;11.10;;;15.70;99.90;;;;;;4850357;29;20410;-85
2022/06/06 00:26:16;;;;;;;12.90;10.20;;;15.70;99.90;;;;;;4863658;29;20048;-86
2022/06/06 00:28:44;;;;;;;13.35;10.25;;;15.60;99.90;;;;;;4849066;29;20451;-82
2022/06/06 00:36:41;;;;;;;11.55;9.82;;;15.50;99.90;;;;;;4866545;29;20056;-81
2022/06/06 00:39:09;;;;;;;11.85;9.77;;;15.50;99.90;;;;;;4863290;29;20084;-81
2022/06/06 00:41:43;;;;;;;9.88;8.48;;;15.40;99.90;;;;;;4862934;29;20053;-80
2022/06/06 00:44:12;;;;;;;10.38;8.32;;;15.50;99.90;;;;;;4851082;29;20052;-82
2022/06/06 00:46:47;;;;;;;12.35;9.38;;;15.40;99.90;;;;;;4830427;29;20411;-86
2022/06/06 00:49:36;;;;;;;10.00;8.32;;;15.40;99.90;;;;;;4852264;29;20356;-84
2022/06/06 00:52:04;;;;;;;10.02;8.55;;;15.40;99.90;;;;;;4864759;29;20055;-82
2022/06/06 00:54:31;;;;;;;10.30;8.73;;;15.40;99.90;;;;;;4865949;29;20467;-81
2022/06/06 00:57:02;;;;;;;10.88;7.50;;;15.40;99.90;;;;;;4850830;29;20048;-82
2022/06/06 00:59:34;;;;;;;9.40;7.80;;;15.40;99.90;;;;;;4858387;29;20048;-80
2022/06/06 01:02:00;;;;;;;8.52;7.13;;;15.30;99.90;;;;;;4847705;29;20045;-81
2022/06/06 01:04:28;;;;;;;12.00;7.68;;;15.40;99.90;;;;;;4862758;29;20053;-82
2022/06/06 01:06:55;;;;;;;9.32;7.22;;;15.30;99.90;;;;;;4848057;29;20045;-81
2022/06/06 01:09:22;;;;;;;10.32;7.65;;;15.30;99.90;;;;;;4848216;29;20045;-83
2022/06/06 01:12:11;;;;;;;8.85;7.60;;;15.40;99.90;;;;;;4850069;29;20072;-81
2022/06/06 01:14:40;;;;;;;10.20;7.13;;;15.30;99.90;;;;;;4865685;29;20126;-80
2022/06/06 01:17:18;;;;;;;8.18;7.22;;;15.30;99.90;;;;;;4879786;29;20048;-83
2022/06/06 01:20:02;;;;;;;7.93;6.60;;;15.30;99.90;;;;;;4863171;29;20101;-84
2022/06/06 01:22:56;;;;;;;7.72;6.10;;;15.30;99.90;;;;;;4862929;29;20052;-81
2022/06/06 01:25:40;;;;;;;6.45;5.85;;;15.20;99.90;;;;;;4851037;29;20416;-82
2022/06/06 01:28:31;;;;;;;7.45;6.13;;;15.20;99.90;;;;;;4852421;29;20432;-80
2022/06/06 01:31:01;;;;;;;7.75;6.30;;;15.20;99.90;;;;;;4872108;29;20139;-79
2022/06/06 01:33:27;;;;;;;7.43;6.72;;;15.20;99.90;;;;;;4865634;29;20435;-82
2022/06/06 01:35:53;;;;;;;8.40;6.63;;;15.20;99.90;;;;;;4864782;29;20107;-83
2022/06/06 01:38:23;;;;;;;7.28;6.28;;;15.20;99.90;;;;;;4835631;29;20052;-79
2022/06/06 01:41:03;;;;;;;9.55;6.68;;;15.20;99.90;;;;;;4862308;29;20041;-82
2022/06/06 01:43:55;;;;;;;6.70;5.90;;;15.20;99.90;;;;;;4859253;29;20162;-80
2022/06/06 01:46:26;;;;;;;8.13;6.07;;;15.10;99.90;;;;;;4865105;29;20076;-82
2022/06/06 01:48:53;;;;;;;7.88;7.07;;;15.10;99.90;;;;;;4859307;29;20044;-83
2022/06/06 01:51:27;;;;;;;8.30;6.55;;;15.10;99.90;;;;;;4831749;29;20127;-80
2022/06/06 01:53:53;;;;;;;10.68;7.10;;;15.00;99.90;;;;;;4843612;29;20128;-82
2022/06/06 01:56:33;;;;;;;7.25;6.55;;;15.00;99.90;;;;;;4829091;29;20448;-82
2022/06/06 01:58:59;;;;;;;8.88;7.57;;;15.00;99.90;;;;;;4832161;29;20507;-82
2022/06/06 02:01:25;;;;;;;10.00;7.97;;;15.00;99.90;;;;;;4847497;29;20096;-83
2022/06/06 02:03:51;;;;;;;11.43;7.95;;;15.00;99.90;;;;;;4843683;29;20054;-79
2022/06/06 02:06:18;;;;;;;8.50;7.22;;;15.00;99.90;;;;;;4854285;29;20080;-80
2022/06/06 02:08:44;;;;;;;9.82;8.05;;;14.90;99.90;;;;;;4831119;29;20052;-77
2022/06/06 02:11:11;;;;;;;10.48;7.78;;;14.90;99.90;;;;;;4878726;29;20379;-79
2022/06/06 02:13:37;;;;;;;10.18;8.43;;;14.90;99.90;;;;;;4862196;29;20132;-81
2022/06/06 02:16:03;;;;;;;10.00;8.23;;;14.90;99.90;;;;;;4847146;29;20487;-83
2022/06/06 02:18:29;;;;;;;10.95;8.90;;;14.90;99.90;;;;;;4846862;29;20052;-81
2022/06/06 02:20:55;;;;;;;10.75;8.75;;;14.90;99.90;;;;;;4847423;29;20084;-83
2022/06/06 02:23:21;;;;;;;15.13;9.60;;;14.90;99.90;;;;;;4844636;29;20066;-79
2022/06/06 02:25:48;;;;;;;10.43;8.52;;;14.90;99.90;;;;;;4855528;29;20116;-82
2022/06/06 02:28:15;;;;;;;11.38;9.40;;;14.90;99.90;;;;;;4854357;29;20029;-83
2022/06/06 02:30:41;;;;;;;11.90;9.45;;;14.90;99.90;;;;;;4832008;29;20037;-81
2022/06/06 02:33:07;;;;;;;12.00;9.25;;;14.80;99.90;;;;;;4846701;29;20045;-81
2022/06/06 02:35:36;;;;;;;12.13;9.20;;;14.80;99.90;;;;;;4846555;29;20056;-81
2022/06/06 02:38:02;;;;;;;11.20;9.00;;;14.80;99.90;;;;;;4871296;29;20045;-82
2022/06/06 02:40:30;;;;;;;12.60;9.18;;;14.80;99.90;;;;;;4850406;29;20045;-81
2022/06/06 02:42:56;;;;;;;12.57;9.80;;;14.80;99.90;;;;;;4831441;29;20104;-82
2022/06/06 02:45:22;;;;;;;10.13;7.68;;;14.70;99.90;;;;;;4839464;29;20033;-82
2022/06/06 02:47:51;;;;;;;12.52;9.02;;;14.80;99.90;;;;;;4850414;29;20181;-84
2022/06/06 02:50:20;;;;;;;10.60;8.48;;;14.70;99.90;;;;;;4850035;29;20045;-84
2022/06/06 02:52:46;;;;;;;9.80;8.05;;;14.70;99.90;;;;;;4849550;29;20068;-82
2022/06/06 02:55:13;;;;;;;10.45;7.82;;;14.80;99.90;;;;;;4849435;29;20045;-82
2022/06/06 02:57:41;;;;;;;8.60;7.70;;;14.80;99.90;;;;;;4867130;29;20060;-81
2022/06/06 03:00:09;;;;;;;9.25;7.45;;;14.70;99.90;;;;;;4853555;29;20049;-81
2022/06/06 03:02:35;;;;;;;9.20;7.47;;;14.80;99.90;;;;;;4859013;29;20041;-82
2022/06/06 03:05:03;;;;;;;8.90;7.13;;;14.70;99.90;;;;;;4882444;29;20048;-82
2022/06/06 03:07:50;;;;;;;9.07;7.07;;;14.70;99.90;;;;;;4863447;29;20100;-82
2022/06/06 03:10:39;;;;;;;8.20;6.70;;;14.70;99.90;;;;;;4850920;29;20140;-83
2022/06/06 03:13:23;;;;;;;8.23;6.47;;;14.70;99.90;;;;;;4848178;29;20069;-83
2022/06/06 03:23:05;;;;;;;9.23;7.35;;;14.70;99.90;;;;;;4862979;29;20084;-81
2022/06/06 03:25:49;;;;;;;8.52;7.15;;;14.70;99.90;;;;;;4860082;29;20084;-83
2022/06/06 03:28:39;;;;;;;11.57;8.27;;;14.70;99.90;;;;;;4856248;29;20053;-81
2022/06/06 03:31:57;;;;;;;12.30;9.95;;;14.70;99.90;;;;;;4867884;29;20444;-82
2022/06/06 03:34:56;;;;;;;18.30;13.82;;;14.70;99.90;;;;;;4845538;29;20049;-81
2022/06/06 03:37:34;;;;;;;23.25;15.65;;;14.70;99.90;;;;;;4861531;29;20092;-81
2022/06/06 03:40:03;;;;;;;20.58;15.40;;;14.70;99.90;;;;;;4863847;29;20399;-84
2022/06/06 03:42:41;;;;;;;21.88;15.55;;;14.60;99.90;;;;;;4864459;29;20045;-80
2022/06/06 03:45:20;;;;;;;28.45;18.63;;;14.60;99.90;;;;;;4874706;29;20048;-83
2022/06/06 03:47:56;;;;;;;34.00;20.73;;;14.60;99.90;;;;;;4855850;29;20045;-83
2022/06/06 03:50:48;;;;;;;39.90;24.08;;;14.60;99.90;;;;;;4869393;29;20048;-84
2022/06/06 03:53:34;;;;;;;34.47;21.25;;;14.60;99.90;;;;;;4854950;29;20064;-86
2022/06/06 03:56:25;;;;;;;38.10;22.80;;;14.60;99.90;;;;;;4852392;29;20100;-85
2022/06/06 03:58:52;;;;;;;36.47;22.83;;;14.50;99.90;;;;;;4867232;29;20643;-83
2022/06/06 04:01:21;;;;;;;26.47;17.27;;;14.50;99.90;;;;;;4882862;29;20383;-82
2022/06/06 04:03:49;;;;;;;20.77;14.30;;;14.50;99.90;;;;;;4869600;29;20045;-83
2022/06/06 04:06:17;;;;;;;16.60;11.80;;;14.50;99.90;;;;;;4864301;29;20109;-85
2022/06/06 04:08:43;;;;;;;17.15;11.65;;;14.50;99.90;;;;;;4862245;29;20124;-84
2022/06/06 04:11:11;;;;;;;17.05;11.48;;;14.40;99.90;;;;;;4881767;29;20451;-83
2022/06/06 04:13:53;;;;;;;18.63;10.73;;;14.40;99.90;;;;;;4866577;29;20494;-83
2022/06/06 04:16:28;;;;;;;13.00;8.60;;;14.40;99.90;;;;;;4876665;29;20380;-84
2022/06/06 04:19:05;;;;;;;10.63;7.47;;;14.30;99.90;;;;;;4850564;29;20049;-83
2022/06/06 04:22:03;;;;;;;14.43;8.95;;;14.30;99.90;;;;;;4853791;29;20056;-83
2022/06/06 04:24:50;;;;;;;11.97;8.63;;;14.30;99.90;;;;;;4850969;29;20398;-83
2022/06/06 04:27:38;;;;;;;12.47;8.60;;;14.30;99.90;;;;;;4866307;29;20052;-82
2022/06/06 04:30:17;;;;;;;10.77;8.43;;;14.30;99.90;;;;;;4866336;29;20045;-83
2022/06/06 04:32:57;;;;;;;12.77;7.77;;;14.20;99.90;;;;;;4855282;29;20045;-82
2022/06/06 04:35:49;;;;;;;12.87;8.57;;;14.20;99.90;;;;;;4857360;29;20041;-83
2022/06/06 04:38:14;;;;;;;13.75;8.75;;;14.30;99.90;;;;;;4870241;29;20137;-82
2022/06/06 04:41:00;;;;;;;15.00;8.87;;;14.20;99.90;;;;;;4863938;29;20546;-83
2022/06/06 04:43:40;;;;;;;13.30;8.97;;;14.30;99.90;;;;;;4879013;29;20060;-84
2022/06/06 04:46:14;;;;;;;12.43;8.10;;;14.20;99.90;;;;;;4865711;29;20044;-84
2022/06/06 04:48:41;;;;;;;12.33;7.40;;;14.20;99.90;;;;;;4862887;29;20045;-83
2022/06/06 04:51:08;;;;;;;16.83;9.33;;;14.20;99.90;;;;;;4847454;29;20037;-83
2022/06/06 04:53:39;;;;;;;16.63;10.07;;;14.10;99.90;;;;;;4837059;29;20093;-83
2022/06/06 04:56:07;;;;;;;18.30;11.07;;;14.10;99.90;;;;;;4822063;29;20432;-84
2022/06/06 04:58:34;;;;;;;20.83;12.33;;;14.20;99.90;;;;;;4843796;29;20084;-84
2022/06/06 05:01:02;;;;;;;17.40;11.47;;;14.10;99.90;;;;;;4842720;29;20080;-84
2022/06/06 05:03:28;;;;;;;21.30;11.70;;;14.00;99.90;;;;;;4865520;29;20049;-84
2022/06/06 05:05:56;;;;;;;23.20;12.40;;;14.00;99.90;;;;;;4832242;29;20041;-83
2022/06/06 05:08:41;;;;;;;21.83;11.63;;;14.00;99.90;;;;;;4839497;29;20040;-84
2022/06/06 05:11:29;;;;;;;19.37;11.63;;;14.00;99.90;;;;;;4862728;29;20460;-82
2022/06/06 05:14:13;;;;;;;23.73;11.87;;;14.00;99.90;;;;;;4834069;29;20459;-84
2022/06/06 05:16:53;;;;;;;21.33;12.13;;;14.00;99.90;;;;;;4845021;29;20094;-83
2022/06/06 05:19:22;;;;;;;21.80;12.17;;;14.00;99.90;;;;;;4841043;29;20046;-82
2022/06/06 05:22:16;;;;;;;19.97;10.80;;;14.00;99.90;;;;;;4831860;29;20076;-84
2022/06/06 05:24:54;;;;;;;25.47;12.90;;;14.00;99.90;;;;;;4837906;29;20100;-84
2022/06/06 05:27:46;;;;;;;25.50;13.07;;;14.00;99.90;;;;;;4846622;29;20076;-83
2022/06/06 05:30:11;;;;;;;21.38;12.02;;;14.00;99.90;;;;;;4856826;29;20041;-83
2022/06/06 05:33:14;;;;;;;25.27;12.63;;;14.10;99.90;;;;;;4828508;29;20056;-85
2022/06/06 05:36:04;;;;;;;21.13;12.83;;;14.00;99.90;;;;;;4832467;29;20052;-83
2022/06/06 05:38:32;;;;;;;27.13;13.57;;;14.00;99.90;;;;;;4838178;29;20418;-83
2022/06/06 05:41:23;;;;;;;26.50;12.70;;;14.00;99.90;;;;;;4840079;29;20498;-83
2022/06/06 05:44:16;;;;;;;22.77;11.57;;;14.00;99.90;;;;;;4825260;29;20046;-83
2022/06/06 05:46:44;;;;;;;25.87;12.60;;;14.00;99.90;;;;;;4841206;29;20044;-84
2022/06/06 05:49:38;;;;;;;25.30;13.00;;;14.00;99.90;;;;;;4859965;29;20478;-83
2022/06/06 05:52:34;;;;;;;23.30;13.07;;;14.00;99.90;;;;;;4848949;29;20799;-83
2022/06/06 05:55:08;;;;;;;21.30;12.17;;;14.00;99.90;;;;;;4843414;29;20132;-84
2022/06/06 05:57:59;;;;;;;24.33;13.47;;;14.00;99.90;;;;;;4861760;29;20044;-83
2022/06/06 06:00:44;;;;;;;19.17;11.50;;;14.00;99.90;;;;;;4827591;29;20570;-83
2022/06/06 06:03:22;;;;;;;24.17;12.17;;;14.00;99.90;;;;;;4849400;29;20040;-83
2022/06/06 06:06:06;;;;;;;26.97;13.07;;;14.00;99.90;;;;;;4850501;29;20133;-83
2022/06/06 06:08:43;;;;;;;24.47;12.37;;;14.00;99.90;;;;;;4828198;29;20411;-83
2022/06/06 06:11:25;;;;;;;24.77;12.87;;;14.10;99.90;;;;;;4829944;29;20041;-83
2022/06/06 06:14:29;;;;;;;20.03;11.30;;;14.10;99.90;;;;;;4825177;29;20602;-84
2022/06/06 06:16:59;;;;;;;19.00;11.60;;;14.10;99.90;;;;;;4824849;29;20141;-85
2022/06/06 06:20:03;;;;;;;22.10;11.40;;;14.10;99.90;;;;;;4850285;29;20431;-83
2022/06/06 06:22:47;;;;;;;22.37;11.60;;;14.10;99.90;;;;;;4816063;29;21598;-84
2022/06/06 06:25:15;;;;;;;20.90;11.53;;;14.10;99.90;;;;;;4864618;24;20056;-84
2022/06/06 06:27:43;;;;;;;25.13;12.07;;;14.10;99.90;;;;;;4851907;29;20131;-84
2022/06/06 06:30:09;;;;;;;24.67;12.73;;;14.10;99.90;;;;;;4887354;29;20037;-86
2022/06/06 06:33:36;;;;;;;26.17;12.03;;;14.10;99.90;;;;;;4849193;29;20049;-85
2022/06/06 06:36:41;;;;;;;26.80;12.70;;;14.10;99.90;;;;;;4804926;29;20042;-85
2022/06/06 06:39:06;;;;;;;27.00;14.20;;;14.20;99.90;;;;;;4803271;29;20091;-84
2022/06/06 06:41:57;;;;;;;25.87;13.73;;;14.20;99.90;;;;;;4865676;29;20048;-84
2022/06/06 06:44:40;;;;;;;29.30;13.53;;;14.20;99.90;;;;;;4877303;29;20049;-85
2022/06/06 06:47:18;;;;;;;28.10;13.50;;;14.20;99.90;;;;;;4892014;29;20475;-84
2022/06/06 06:49:50;;;;;;;27.87;13.83;;;14.20;99.90;;;;;;4853583;29;20040;-85
2022/06/06 06:52:34;;;;;;;25.27;13.20;;;14.40;99.90;;;;;;4845107;29;20052;-84
2022/06/06 06:55:29;;;;;;;24.83;12.33;;;14.60;99.90;;;;;;4849285;29;20037;-84
2022/06/06 06:58:13;;;;;;;20.47;10.90;;;14.90;99.90;;;;;;4874968;29;20529;-83
2022/06/06 07:00:49;;;;;;;18.25;9.77;;;15.30;99.90;;;;;;4860422;29;20507;-84
2022/06/06 07:10:02;;;;;;;16.58;7.57;;;15.70;99.90;;;;;;4859981;29;20041;-84
2022/06/06 07:13:09;;;;;;;14.48;7.60;;;15.70;99.90;;;;;;4861737;29;20089;-84
2022/06/06 07:15:58;;;;;;;15.25;7.65;;;15.80;99.90;;;;;;4798967;29;20070;-84
2022/06/06 07:18:28;;;;;;;15.05;7.90;;;15.80;99.90;;;;;;4859669;29;20049;-84
2022/06/06 07:20:56;;;;;;;14.50;8.07;;;15.70;99.90;;;;;;4853693;29;20045;-84
2022/06/06 07:23:25;;;;;;;13.50;7.63;;;15.70;99.90;;;;;;4845633;29;20081;-84
2022/06/06 07:25:54;;;;;;;15.43;8.00;;;15.70;99.90;;;;;;4849843;29;20109;-85
2022/06/06 07:28:24;;;;;;;13.35;7.85;;;15.70;99.90;;;;;;4872261;29;20036;-84
2022/06/06 07:31:09;;;;;;;15.82;8.93;;;15.80;99.90;;;;;;4849065;29;20044;-83
2022/06/06 07:33:38;;;;;;;16.70;8.07;;;15.80;99.90;;;;;;4872053;29;20045;-83
2022/06/06 07:36:22;;;;;;;15.50;8.45;;;15.80;99.90;;;;;;4876000;29;20088;-84
2022/06/06 07:39:25;;;;;;;14.43;7.82;;;15.90;99.90;;;;;;4870580;29;20045;-83
2022/06/06 07:42:11;;;;;;;13.32;7.82;;;15.90;99.90;;;;;;4850929;29;20552;-84
2022/06/06 07:45:06;;;;;;;15.68;7.75;;;15.80;99.90;;;;;;4865436;29;20054;-84
2022/06/06 07:47:57;;;;;;;16.80;7.82;;;15.70;99.90;;;;;;4863900;29;20045;-83
2022/06/06 07:50:32;;;;;;;14.85;8.43;;;15.60;99.90;;;;;;4863410;29;20439;-83
2022/06/06 07:53:03;;;;;;;14.45;8.05;;;15.60;99.90;;;;;;4863683;29;20379;-84
2022/06/06 07:55:50;;;;;;;11.40;6.38;;;15.60;99.90;;;;;;4848293;29;20037;-85
2022/06/06 07:58:26;;;;;;;11.75;6.30;;;15.50;99.90;;;;;;4848046;29;20126;-84
2022/06/06 08:01:12;;;;;;;13.18;6.90;;;15.50;99.90;;;;;;4850029;29;20134;-83
2022/06/06 08:03:50;;;;;;;13.13;7.30;;;15.60;99.90;;;;;;4863942;29;20041;-84
2022/06/06 08:06:56;;;;;;;13.43;6.88;;;15.70;99.90;;;;;;4851695;29;20049;-84
2022/06/06 08:09:39;;;;;;;13.93;7.95;;;15.90;99.90;;;;;;4841670;29;20495;-85
2022/06/06 08:12:23;;;;;;;14.88;8.57;;;16.10;99.90;;;;;;4846861;29;20060;-85
2022/06/06 08:14:59;;;;;;;12.40;7.97;;;16.20;99.90;;;;;;4859358;29;20076;-84
2022/06/06 08:18:06;;;;;;;18.98;10.75;;;16.30;99.90;;;;;;4862869;29;20116;-83
2022/06/06 08:21:00;;;;;;;23.92;11.75;;;16.40;99.90;;;;;;4838879;29;20124;-84
2022/06/06 08:23:27;;;;;;;25.38;11.82;;;16.70;99.90;;;;;;4846264;29;20442;-85
2022/06/06 08:25:56;;;;;;;19.73;11.43;;;17.20;99.90;;;;;;4861146;29;20046;-84
2022/06/06 08:28:21;;;;;;;17.98;10.63;;;17.40;99.90;;;;;;4861479;29;20056;-84
2022/06/06 08:30:47;;;;;;;14.88;10.02;;;17.50;99.90;;;;;;4835064;29;20110;-84
2022/06/06 08:33:13;;;;;;;13.90;7.70;;;17.50;99.90;;;;;;4849792;29;20471;-84
2022/06/06 08:36:02;;;;;;;12.80;7.60;;;17.30;99.90;;;;;;4849685;29;20048;-85
2022/06/06 08:38:30;;;;;;;11.80;7.78;;;17.10;99.90;;;;;;4864801;29;20530;-83
2022/06/06 08:41:14;;;;;;;15.10;7.80;;;16.80;99.90;;;;;;4851080;29;20411;-84
2022/06/06 08:43:58;;;;;;;15.38;8.00;;;16.60;99.90;;;;;;4864085;29;20558;-84
2022/06/06 08:46:50;;;;;;;11.98;7.30;;;16.40;99.90;;;;;;4848962;29;20120;-84
2022/06/06 08:53:02;;;;;;;9.95;6.63;;;16.10;99.90;;;;;;4863020;29;20080;-84
2022/06/06 08:55:47;;;;;;;12.65;6.68;;;16.00;99.90;;;;;;4863569;29;20080;-85
2022/06/06 08:58:51;;;;;;;8.60;6.32;;;16.30;99.90;;;;;;4863729;29;20057;-85
2022/06/06 09:01:20;;;;;;;9.02;5.80;;;16.50;99.90;;;;;;4863490;29;20056;-84
2022/06/06 09:03:54;;;;;;;9.18;5.30;;;16.60;99.90;;;;;;4863872;29;20131;-83
2022/06/06 09:06:53;;;;;;;10.45;5.50;;;16.50;99.90;;;;;;4864478;29;20051;-83
2022/06/06 09:09:41;;;;;;;10.05;5.22;;;16.40;99.90;;;;;;4862530;29;20136;-84
2022/06/06 09:12:43;;;;;;;11.32;5.10;;;16.30;99.90;;;;;;4849416;29;20048;-84
2022/06/06 09:15:47;;;;;;;9.10;4.70;;;16.10;99.90;;;;;;4862541;29;20048;-85
2022/06/06 09:18:43;;;;;;;5.20;3.90;;;16.20;99.90;;;;;;4883117;29;20048;-84
2022/06/06 09:21:27;;;;;;;7.50;3.92;;;16.20;99.90;;;;;;4863225;29;20041;-83
2022/06/06 09:24:21;;;;;;;3.97;3.05;;;16.20;99.90;;;;;;4865335;29;20072;-84
2022/06/06 09:26:56;;;;;;;6.50;2.80;;;16.30;99.90;;;;;;4864134;29;20037;-85
2022/06/06 09:30:00;;;;;;;4.38;3.05;;;16.40;99.90;;;;;;4848009;29;20041;-84
2022/06/06 09:33:03;;;;;;;3.60;2.70;;;16.50;99.90;;;;;;4808688;29;20085;-84
2022/06/06 09:35:32;;;;;;;7.43;3.45;;;16.70;99.90;;;;;;4791132;29;20495;-83
2022/06/06 09:38:14;;;;;;;4.68;2.67;;;17.00;99.90;;;;;;4846525;29;20053;-85
2022/06/06 09:41:09;;;;;;;6.18;3.13;;;17.20;99.90;;;;;;4862206;29;20045;-84
2022/06/06 09:44:07;;;;;;;4.97;2.75;;;17.30;99.90;;;;;;4862833;29;20485;-85
2022/06/06 09:46:59;;;;;;;6.70;3.00;;;17.60;99.90;;;;;;4861121;29;20091;-84
2022/06/06 09:49:44;;;;;;;;;;;17.80;99.90;;;;;;4862562;29;20540;-84
2022/06/06 09:52:36;;;;;;;6.65;3.63;;;17.70;99.90;;;;;;4862314;29;20154;-84
2022/06/06 10:01:24;;;;;;;4.88;3.80;;;17.10;99.90;;;;;;4864072;29;20063;-83
2022/06/06 10:03:56;;;;;;;6.22;4.05;;;17.30;99.90;;;;;;4845970;29;20055;-84
2022/06/06 10:06:51;;;;;;;7.50;4.13;;;17.80;99.90;;;;;;4864921;29;20037;-84
2022/06/06 10:09:29;;;;;;;9.45;3.70;;;18.10;99.90;;;;;;4868749;29;20041;-82
2022/06/06 10:12:47;;;;;;;4.32;3.67;;;18.10;99.90;;;;;;4850876;29;20041;-82
2022/06/06 10:15:44;;;;;;;6.30;4.07;;;17.80;99.90;;;;;;4826425;29;20602;-83
2022/06/06 10:18:19;;;;;;;4.28;3.30;;;17.30;99.90;;;;;;4848774;29;20044;-83
2022/06/06 10:21:06;;;;;;;6.68;4.00;;;17.00;99.90;;;;;;4843066;29;20045;-84
2022/06/06 10:23:59;;;;;;;5.80;4.10;;;16.70;99.90;;;;;;4857958;29;20049;-84
2022/06/06 10:26:49;;;;;;;6.80;4.90;;;16.80;99.90;;;;;;4858325;29;20053;-84
2022/06/06 10:30:23;;;;;;;6.60;4.35;;;16.70;99.90;;;;;;4844432;29;20048;-84
2022/06/06 10:32:51;;;;;;;5.05;3.60;;;16.60;99.90;;;;;;4855568;29;20045;-84
2022/06/06 10:35:30;;;;;;;5.03;3.40;;;16.30;99.90;;;;;;4845368;29;20411;-83
2022/06/06 10:38:04;;;;;;;4.32;3.20;;;16.30;99.90;;;;;;4875757;29;20148;-82
2022/06/06 10:40:41;;;;;;;4.93;3.67;;;16.20;99.90;;;;;;4860615;29;20089;-85
2022/06/06 10:43:14;;;;;;;3.22;3.00;;;16.20;99.90;;;;;;4843980;29;20387;-84
2022/06/06 10:45:48;;;;;;;4.68;3.65;;;16.40;99.90;;;;;;4853601;29;20077;-84
2022/06/06 10:48:41;;;;;;;5.43;4.07;;;16.90;99.90;;;;;;4854674;29;20043;-84
2022/06/06 10:51:38;;;;;;;3.90;3.60;;;17.30;99.90;;;;;;4844361;29;20059;-85
2022/06/06 10:54:32;;;;;;;4.85;3.92;;;17.20;99.90;;;;;;4858856;29;20148;-84
2022/06/06 10:57:17;;;;;;;4.38;3.92;;;17.10;99.90;;;;;;4861356;29;20093;-83
2022/06/06 10:59:45;;;;;;;6.40;4.18;;;16.90;99.90;;;;;;4864726;29;20048;-84
2022/06/06 11:02:33;;;;;;;6.30;4.60;;;16.80;99.90;;;;;;4850569;29;20049;-83
2022/06/06 11:05:17;;;;;;;4.35;3.92;;;17.00;99.90;;;;;;4863944;29;20525;-83
2022/06/06 11:08:11;;;;;;;5.13;3.30;;;16.90;99.90;;;;;;4865609;29;20128;-83
2022/06/06 11:10:55;;;;;;;3.20;2.90;;;16.90;99.90;;;;;;4864216;29;20045;-85
2022/06/06 11:13:40;;;;;;;4.00;2.70;;;16.90;99.90;;;;;;4849493;29;20049;-83
2022/06/06 11:16:31;;;;;;;2.70;2.50;;;16.90;99.90;;;;;;4865950;29;20053;-83
2022/06/06 11:19:41;;;;;;;4.25;2.88;;;16.70;99.90;;;;;;4849080;29;20045;-84
2022/06/06 11:22:19;;;;;;;4.25;3.00;;;16.50;99.90;;;;;;4854954;29;20045;-84
2022/06/06 11:25:07;;;;;;;3.22;2.92;;;16.30;99.90;;;;;;4866034;29;20124;-84
2022/06/06 11:27:36;;;;;;;4.35;2.55;;;16.20;99.90;;;;;;4865449;29;20423;-83
2022/06/06 11:30:23;;;;;;;2.55;2.10;;;16.00;99.90;;;;;;4850694;29;20045;-85
2022/06/06 11:33:01;;;;;;;2.28;2.17;;;15.90;99.90;;;;;;4867707;29;20048;-85
2022/06/06 11:36:04;;;;;;;2.65;2.00;;;15.90;99.90;;;;;;4866674;29;20085;-84
2022/06/06 11:39:16;;;;;;;4.03;2.10;;;15.80;99.90;;;;;;4866062;29;20052;-84
2022/06/06 11:41:57;;;;;;;2.35;1.70;;;15.80;99.90;;;;;;4818860;29;20127;-83
2022/06/06 11:44:48;;;;;;;2.20;2.00;;;15.90;99.90;;;;;;4859909;29;20630;-83
2022/06/06 11:47:41;;;;;;;2.58;2.10;;;15.90;99.90;;;;;;4847224;29;20053;-83
2022/06/06 11:50:24;;;;;;;2.30;2.10;;;16.00;99.90;;;;;;4866562;29;20477;-85
2022/06/06 11:53:12;;;;;;;2.92;2.20;;;15.90;99.90;;;;;;4867537;29;20049;-83
2022/06/06 11:55:49;;;;;;;2.40;2.20;;;16.10;99.90;;;;;;4868628;29;20051;-85
2022/06/06 11:58:44;;;;;;;2.53;2.33;;;16.40;99.90;;;;;;4865764;29;20097;-85
2022/06/06 12:01:16;;;;;;;4.63;2.28;;;17.10;99.90;;;;;;4842282;29;20085;-84
2022/06/06 12:04:10;;;;;;;3.08;2.30;;;17.60;99.90;;;;;;4850548;29;20063;-84
2022/06/06 12:06:57;;;;;;;3.72;2.60;;;18.10;99.90;;;;;;4865023;29;20044;-82
2022/06/06 12:09:35;;;;;;;5.63;2.60;;;18.60;99.90;;;;;;4881577;29;20040;-82
2022/06/06 12:12:37;;;;;;;4.30;2.80;;;18.90;99.90;;;;;;4866517;29;20103;-84
2022/06/06 12:15:08;;;;;;;2.78;2.30;;;19.10;99.90;;;;;;4864044;29;20079;-82
2022/06/06 12:17:55;;;;;;;4.20;2.40;;;19.40;99.90;;;;;;4863160;29;20096;-84
2022/06/06 12:20:27;;;;;;;2.75;1.95;;;19.50;99.90;;;;;;4866381;29;20044;-84
2022/06/06 12:23:22;;;;;;;3.20;2.00;;;19.30;99.90;;;;;;4851109;29;20527;-85
2022/06/06 12:25:57;;;;;;;2.00;1.88;;;19.00;99.90;;;;;;4847482;29;20562;-82
2022/06/06 12:28:44;;;;;;;2.25;1.70;;;18.80;99.90;;;;;;4849112;29;20044;-84
2022/06/06 12:31:33;;;;;;;3.00;1.70;;;18.70;99.90;;;;;;4863414;29;20872;-83
2022/06/06 12:34:36;;;;;;;5.13;1.63;;;18.60;99.90;;;;;;4828150;29;20059;-84
2022/06/06 12:37:09;;;;;;;2.65;1.50;;;18.70;99.90;;;;;;4846882;29;20060;-85
2022/06/06 12:40:03;;;;;;;4.68;1.77;;;18.70;99.90;;;;;;4860505;29;20037;-84
2022/06/06 12:42:56;;;;;;;2.10;1.63;;;18.90;99.90;;;;;;4845134;29;20045;-85
2022/06/06 12:45:37;;;;;;;1.25;1.15;;;19.00;99.90;;;;;;4846714;29;20056;-84
2022/06/06 12:48:33;;;;;;;1.13;0.80;;;18.90;99.90;;;;;;4864782;29;20106;-85
2022/06/06 12:51:33;;;;;;;1.38;1.10;;;18.90;99.90;;;;;;4865015;29;20041;-83
2022/06/06 12:54:16;;;;;;;1.45;1.30;;;18.80;99.90;;;;;;4883434;29;20048;-85
2022/06/06 12:56:53;;;;;;;1.25;1.15;;;18.70;99.90;;;;;;4881714;29;20074;-86
2022/06/06 12:59:36;;;;;;;1.35;1.15;;;18.80;99.90;;;;;;4866973;29;20045;-84
2022/06/06 13:02:53;;;;;;;1.30;1.17;;;18.70;99.90;;;;;;4866698;29;20076;-84
2022/06/06 13:05:25;;;;;;;2.88;1.50;;;18.60;99.90;;;;;;4841311;29;20092;-84
2022/06/06 13:08:24;;;;;;;1.60;1.50;;;18.50;99.90;;;;;;4865805;29;20044;-86
2022/06/06 13:11:13;;;;;;;4.00;1.60;;;18.40;99.90;;;;;;4867600;29;20563;-83
2022/06/06 13:14:09;;;;;;;2.70;1.75;;;18.40;99.90;;;;;;4849328;29;20052;-84
2022/06/06 13:16:54;;;;;;;1.75;1.65;;;18.50;99.90;;;;;;4866165;29;20041;-82
2022/06/06 13:19:51;;;;;;;4.45;1.90;;;18.50;99.90;;;;;;4882366;29;20084;-83
2022/06/06 13:22:41;;;;;;;2.80;1.63;;;18.50;99.90;;;;;;4865049;29;20076;-84
2022/06/06 13:25:33;;;;;;;1.70;1.60;;;18.40;99.90;;;;;;4848342;29;20109;-83
2022/06/06 13:28:09;;;;;;;1.90;1.80;;;18.30;99.90;;;;;;4860702;29;20056;-86
2022/06/06 13:31:00;;;;;;;2.05;1.60;;;18.20;99.90;;;;;;4850512;29;20068;-84
2022/06/06 13:33:35;;;;;;;5.57;1.90;;;18.20;99.90;;;;;;4846945;29;20052;-82
2022/06/06 13:36:14;;;;;;;1.85;1.73;;;18.20;99.90;;;;;;4861248;29;20112;-82
2022/06/06 13:38:43;;;;;;;1.80;1.65;;;18.10;99.90;;;;;;4860423;29;20045;-84
2022/06/06 13:41:20;;;;;;;2.63;1.70;;;18.10;99.90;;;;;;4861089;29;20447;-83
2022/06/06 13:44:13;;;;;;;1.77;1.50;;;18.00;99.90;;;;;;4846898;29;20057;-83
2022/06/06 13:46:45;;;;;;;;;;;17.90;99.90;;;;;;4847756;29;20072;-82
2022/06/06 13:49:39;;;;;;;4.97;1.83;;;17.70;99.90;;;;;;4864736;29;19924;-79
2022/06/06 13:52:19;;;;;;;3.28;1.67;;;17.50;99.90;;;;;;4859553;29;20402;-83
2022/06/06 13:54:45;;;;;;;3.03;1.80;;;17.40;99.90;;;;;;4860251;29;20048;-83
2022/06/06 13:57:21;;;;;;;4.07;2.33;;;17.30;99.90;;;;;;4845494;29;20049;-85
2022/06/06 13:59:55;;;;;;;2.45;2.22;;;17.10;99.90;;;;;;4860406;29;20410;-84
2022/06/06 14:02:33;;;;;;;4.25;2.33;;;17.00;99.90;;;;;;4859795;29;20056;-84
2022/06/06 14:05:15;;;;;;;3.47;2.50;;;16.90;99.90;;;;;;4848214;29;20033;-83
2022/06/06 14:07:45;;;;;;;;;;;16.70;99.90;;;;;;4863635;29;20048;-83
2022/06/06 14:10:16;;;;;;;2.72;2.33;;;16.40;99.90;;;;;;4849834;29;20460;-83
2022/06/06 14:13:00;;;;;;;2.97;2.78;;;16.20;99.90;;;;;;4849022;29;20562;-84
2022/06/06 14:15:26;;;;;;;5.53;3.13;;;16.10;99.90;;;;;;4863484;29;20063;-83
2022/06/06 14:18:00;;;;;;;4.72;3.08;;;15.90;99.90;;;;;;4848309;29;20414;-85